Maersk Wakamatsu — 3EZG — position and weather

sailwx.info

Track history (hours):
 
Tides and Currents Weather Stations Pressure Air Temp Water Temp Dewpoint Dewpoint Depression Visibility Wind Speed Wind Dir Waves Ship Positions

Maersk Wakamatsu

Last reported at 2016-Apr-26 00:23 UTC. Time now 2016-May-02 03:43 UTC.
Position N 10°59' W 062°12'.

Length 172 m; draft 6.6 m.

Type: Cargo ship. MMSI: 370484000.

Date/timePositionNaut miles runAvg speedWind from/ knotsBaromVisibWave heightAir tempDewpointWater temp
2016-Apr-26 00:23N 10°59' W 062°12'1012.2
2016-Apr-25 23:33N 10°54' W 062°03'1111.0
2016-Apr-25 22:33N 10°49' W 061°53'10 9.7
2016-Apr-25 21:33N 10°40' W 061°50'1010.3
2016-Apr-25 20:33N 10°32' W 061°42'1010.1
2016-Apr-25 19:33N 10°25' W 061°35'5 5.1
2016-Apr-25 18:32N 10°24' W 061°30'0 0.0
2016-Apr-25 17:26N 10°24' W 061°30'0 0.0
2016-Apr-25 16:29N 10°24' W 061°30'0 0.0
2016-Apr-25 15:29N 10°24' W 061°30'0 0.0
2016-Apr-25 14:32N 10°24' W 061°30'0 0.0
2016-Apr-25 13:32N 10°24' W 061°30'0 0.0
2016-Apr-25 12:29N 10°24' W 061°30'0 0.0
2016-Apr-25 11:32N 10°24' W 061°30'0 0.0
2016-Apr-25 10:33N 10°24' W 061°30'4 3.6
2016-Apr-25 09:33N 10°23' W 061°33'7 6.8
2016-Apr-25 08:33N 10°28' W 061°37'1212.1
2016-Apr-25 07:33N 10°37' W 061°46'9 9.0
2016-Apr-25 06:33N 10°46' W 061°43'1212.5
2016-Apr-25 05:33N 10°52' W 061°32'1211.9
2016-Apr-25 04:33N 10°56' W 061°20'  
2016-Apr-17 23:32N 10°56' W 061°17'1210.0
2016-Apr-17 22:17N 10°53' W 061°30'710.1
2016-Apr-17 21:33N 10°49' W 061°36'1510.0
2016-Apr-17 20:04N 10°38' W 061°46'611.9
2016-Apr-17 19:33N 10°34' W 061°42'1211.8
2016-Apr-17 18:33N 10°25' W 061°34'5 4.6
2016-Apr-17 17:33N 10°24' W 061°30'0 0.0
2016-Apr-17 16:21N 10°24' W 061°30'0 0.0
2016-Apr-17 15:30N 10°24' W 061°30'0 0.0
2016-Apr-17 14:30N 10°24' W 061°30'0 0.0
2016-Apr-17 13:33N 10°24' W 061°30'0 0.0
2016-Apr-17 12:33N 10°24' W 061°30'0 0.0
2016-Apr-17 11:27N 10°24' W 061°30'0 0.0
2016-Apr-17 10:33N 10°24' W 061°30'4 3.7
2016-Apr-17 09:33N 10°24' W 061°33'8 7.9
2016-Apr-17 08:33N 10°30' W 061°39'9 9.5
2016-Apr-17 07:33N 10°36' W 061°46'8 8.3
2016-Apr-17 06:33N 10°44' W 061°49'8 7.6
2016-Apr-17 05:33N 10°49' W 061°55'9 9.0
2016-Apr-17 04:33N 10°52' W 062°04'8 8.3
2016-Apr-17 03:33N 10°53' W 062°12'2 0.8
2016-Apr-17 01:11N 10°53' W 062°10'1 1.3
2016-Apr-17 00:26N 10°53' W 062°09'1 1.2
2016-Apr-16 23:17N 10°53' W 062°08'1 1.1
2016-Apr-16 22:26N 10°53' W 062°07'2 1.2
2016-Apr-16 20:32N 10°53' W 062°04'3 1.3
2016-Apr-16 18:29N 10°53' W 062°02'4 4.7
2016-Apr-16 17:33N 10°53' W 062°06'1210.8
2016-Apr-16 16:26N 10°53' W 062°18'11 1.7
2016-Apr-16 10:07N 10°55' W 062°08'1 2.4
2016-Apr-16 09:31N 10°56' W 062°07'1 0.5
2016-Apr-16 08:21N 10°56' W 062°06'8 9.4
2016-Apr-16 07:33N 10°55' W 062°14'8 8.3
2016-Apr-16 06:34N 10°55' W 062°22'12 3.0
2016-Apr-16 02:25N 10°56' W 062°09'3 3.0
2016-Apr-16 01:29N 10°56' W 062°06'4 4.2
2016-Apr-16 00:33N 10°59' W 062°09'  
Track history (hours):
 
Tides and Currents Weather Stations Pressure Air Temp Water Temp Dewpoint Dewpoint Depression Visibility Wind Speed Wind Dir Waves Ship Positions

Maersk Wakamatsu

Last reported at 2016-Apr-26 00:23 UTC. Time now 2016-May-02 03:43 UTC.
Position N 10°59' W 062°12'.

Length 172 m; draft 6.6 m.

Type: Cargo ship. MMSI: 370484000.

Date/timePositionNaut miles runAvg speedWind from/ knotsBaromVisibWave heightAir tempDewpointWater temp
2016-Apr-26 00:23N 10°59' W 062°12'1012.2
2016-Apr-25 23:33N 10°54' W 062°03'1111.0
2016-Apr-25 22:33N 10°49' W 061°53'10 9.7
2016-Apr-25 21:33N 10°40' W 061°50'1010.3
2016-Apr-25 20:33N 10°32' W 061°42'1010.1
2016-Apr-25 19:33N 10°25' W 061°35'5 5.1
2016-Apr-25 18:32N 10°24' W 061°30'0 0.0
2016-Apr-25 17:26N 10°24' W 061°30'0 0.0
2016-Apr-25 16:29N 10°24' W 061°30'0 0.0
2016-Apr-25 15:29N 10°24' W 061°30'0 0.0
2016-Apr-25 14:32N 10°24' W 061°30'0 0.0
2016-Apr-25 13:32N 10°24' W 061°30'0 0.0
2016-Apr-25 12:29N 10°24' W 061°30'0 0.0
2016-Apr-25 11:32N 10°24' W 061°30'0 0.0
2016-Apr-25 10:33N 10°24' W 061°30'4 3.6
2016-Apr-25 09:33N 10°23' W 061°33'7 6.8
2016-Apr-25 08:33N 10°28' W 061°37'1212.1
2016-Apr-25 07:33N 10°37' W 061°46'9 9.0
2016-Apr-25 06:33N 10°46' W 061°43'1212.5
2016-Apr-25 05:33N 10°52' W 061°32'1211.9
2016-Apr-25 04:33N 10°56' W 061°20'  
2016-Apr-17 23:32N 10°56' W 061°17'1210.0
2016-Apr-17 22:17N 10°53' W 061°30'710.1
2016-Apr-17 21:33N 10°49' W 061°36'1510.0
2016-Apr-17 20:04N 10°38' W 061°46'611.9
2016-Apr-17 19:33N 10°34' W 061°42'1211.8
2016-Apr-17 18:33N 10°25' W 061°34'5 4.6
2016-Apr-17 17:33N 10°24' W 061°30'0 0.0
2016-Apr-17 16:21N 10°24' W 061°30'0 0.0
2016-Apr-17 15:30N 10°24' W 061°30'0 0.0
2016-Apr-17 14:30N 10°24' W 061°30'0 0.0
2016-Apr-17 13:33N 10°24' W 061°30'0 0.0
2016-Apr-17 12:33N 10°24' W 061°30'0 0.0
2016-Apr-17 11:27N 10°24' W 061°30'0 0.0
2016-Apr-17 10:33N 10°24' W 061°30'4 3.7
2016-Apr-17 09:33N 10°24' W 061°33'8 7.9
2016-Apr-17 08:33N 10°30' W 061°39'9 9.5
2016-Apr-17 07:33N 10°36' W 061°46'8 8.3
2016-Apr-17 06:33N 10°44' W 061°49'8 7.6
2016-Apr-17 05:33N 10°49' W 061°55'9 9.0
2016-Apr-17 04:33N 10°52' W 062°04'8 8.3
2016-Apr-17 03:33N 10°53' W 062°12'2 0.8
2016-Apr-17 01:11N 10°53' W 062°10'1 1.3
2016-Apr-17 00:26N 10°53' W 062°09'1 1.2
2016-Apr-16 23:17N 10°53' W 062°08'1 1.1
2016-Apr-16 22:26N 10°53' W 062°07'2 1.2
2016-Apr-16 20:32N 10°53' W 062°04'3 1.3
2016-Apr-16 18:29N 10°53' W 062°02'4 4.7
2016-Apr-16 17:33N 10°53' W 062°06'1210.8
2016-Apr-16 16:26N 10°53' W 062°18'11 1.7
2016-Apr-16 10:07N 10°55' W 062°08'1 2.4
2016-Apr-16 09:31N 10°56' W 062°07'1 0.5
2016-Apr-16 08:21N 10°56' W 062°06'8 9.4
2016-Apr-16 07:33N 10°55' W 062°14'8 8.3
2016-Apr-16 06:34N 10°55' W 062°22'12 3.0
2016-Apr-16 02:25N 10°56' W 062°09'3 3.0
2016-Apr-16 01:29N 10°56' W 062°06'4 4.2
2016-Apr-16 00:33N 10°59' W 062°09'  

Dump ship's entire track history